Thunder radar more information blitzortung!


Radar de pluja more information rain snow radar


Visita la nostra xarxa de llocs de meteo:

Template documentation
and downloads

And another site



No particular awareness of the weather is required.    There are no Weather-warnings

Pagina Historial Weather Underground text

Diari Resum Juny 18, 2017 Unitats:  Mètric    Imperial   Tant
« Previous Dia
SegĂźent Dia »
Diari Setmana Mensual Anual Personalitzada
  Maxima: Minima: Media:
Temperatura: -17.8 °C -6.6 °C -3.2 °C
Punt de rosada: -17.8 °C -10.5 °C -8.4 °C
Humitat: Humidity % 29 % 59 %
Wind Speed: 0 km/h 0 km/h 8.4 km/h
RĂ fegues de vent: 0 km/h - -
Vent:- - ESE
Pression baro: 0 hPa 34293.4 hPa -
Precipitacions: 0 mm    
Historical Graphs
 
 
Dades de taula per Juny 18, 2017
Temps Temperatura Punt de rosada Pression baro Vent Wind Speed RĂ fegues de vent Humitat Rainfall Rate (Hourly)
-17.8 °C -17.8 °C 0 hPa Calm     Humidity % 0 mm
00:00 -5.8 °C -7.5 °C 34327.3 hPa Calm   5.1 km/h 83 % 0 mm
00:04 -4.3 °C -7.8 °C 34327.3 hPa SW 6 km/h 6 km/h 68 % 0 mm
00:09 -4.3 °C -7.7 °C 34327.3 hPa SW 6 km/h 6 km/h 69 % 0 mm
00:10 -6 °C -7.7 °C 34293.4 hPa East 2.6 km/h 2.6 km/h 83 % 0 mm
00:20 -6.1 °C -7.7 °C 34293.4 hPa South 2.6 km/h   83 % 0 mm
00:30 -6.1 °C -7.7 °C 34293.4 hPa Calm     84 % 0 mm
00:40 -6.2 °C -7.8 °C 34327.3 hPa Calm     84 % 0 mm
00:50 -6.3 °C -7.7 °C 34327.3 hPa Calm     85 % 0 mm
01:00 -6.3 °C -7.8 °C 34293.4 hPa Calm     85 % 0 mm
01:10 -6.4 °C -8 °C 34293.4 hPa Calm   2.6 km/h 84 % 0 mm
01:20 -6.5 °C -8.1 °C 34293.4 hPa Calm   2.6 km/h 84 % 0 mm
01:30 -6.6 °C -8.2 °C 34293.4 hPa Calm     84 % 0 mm
01:40 -6.6 °C -8.2 °C 34327.3 hPa Calm     84 % 0 mm
01:50 -6.6 °C -8.1 °C 34327.3 hPa Calm   2.6 km/h 85 % 0 mm
02:00 -6.4 °C -7.8 °C 34293.4 hPa Calm   2.6 km/h 85 % 0 mm
02:10 -6.3 °C -7.9 °C 34327.3 hPa NE 2.6 km/h 2.6 km/h 83 % 0 mm
02:20 -6.1 °C -7.9 °C 34327.3 hPa NE 2.6 km/h 2.6 km/h 82 % 0 mm
02:30 -5.9 °C -7.8 °C 34327.3 hPa Calm     81 % 0 mm
02:40 -5.7 °C -7.8 °C 34327.3 hPa Calm   2.6 km/h 79 % 0 mm
02:50 -5.5 °C -8.1 °C 34327.3 hPa ENE 7.7 km/h 7.7 km/h 75 % 0 mm
03:00 -5.5 °C -8.1 °C 34327.3 hPa NE 7.7 km/h 10.3 km/h 75 % 0 mm
03:10 -5.3 °C -8 °C 34327.3 hPa NE 5.1 km/h 7.7 km/h 74 % 0 mm
03:20 -5.2 °C -8.1 °C 34327.3 hPa NE 5.1 km/h 10.3 km/h 73 % 0 mm
03:30 -4.8 °C -7.7 °C 34327.3 hPa Calm   7.7 km/h 73 % 0 mm
03:40 -4.8 °C -7.7 °C 34293.4 hPa NE 5.1 km/h 7.7 km/h 72 % 0 mm
03:50 -4.4 °C -7.6 °C 34293.4 hPa NE 5.1 km/h 10.3 km/h 70 % 0 mm
04:00 -4.3 °C -7.7 °C 34327.3 hPa NE 5.1 km/h 7.7 km/h 69 % 0 mm
04:10 -4.2 °C -7.8 °C 34327.3 hPa NE 5.1 km/h 10.3 km/h 67 % 0 mm
04:20 -3.9 °C -7.9 °C 34327.3 hPa NE 7.7 km/h 7.7 km/h 64 % 0 mm
04:30 -3.6 °C -7.8 °C 34293.4 hPa NNE 2.6 km/h 7.7 km/h 63 % 0 mm
04:40 -3.6 °C -7.9 °C 34327.3 hPa NNE 2.6 km/h 10.3 km/h 62 % 0 mm
04:50 -3.2 °C -7.6 °C 34327.3 hPa NE 5.1 km/h 10.3 km/h 62 % 0 mm
05:00 -3.1 °C -7.4 °C 34327.3 hPa ENE 7.7 km/h 10.3 km/h 62 % 0 mm
05:10 -3 °C -7.6 °C 34327.3 hPa NE 7.7 km/h 10.3 km/h 61 % 0 mm
05:20 -2.7 °C -7.6 °C 34327.3 hPa NE 7.7 km/h 12.9 km/h 59 % 0 mm
05:30 -2.7 °C -7.8 °C 34327.3 hPa ENE 12.9 km/h 15.6 km/h 57 % 0 mm
05:40 -2.1 °C -7.6 °C 34327.3 hPa ENE 5.1 km/h 12.9 km/h 55 % 0 mm
05:50 -2.1 °C -7.9 °C 34327.3 hPa East 12.9 km/h 12.9 km/h 53 % 0 mm
06:00 -1.9 °C -7.9 °C 34327.3 hPa ESE 7.7 km/h 15.6 km/h 52 % 0 mm
06:10 -1.9 °C -8.3 °C 34327.3 hPa ESE 12.9 km/h 20.8 km/h 50 % 0 mm
06:20 -1.3 °C -7.7 °C 34327.3 hPa SE 5.1 km/h 15.6 km/h 50 % 0 mm
06:30 -1.4 °C -7.9 °C 34327.3 hPa East 7.7 km/h 15.6 km/h 49 % 0 mm
06:40 -1.4 °C -8.4 °C 34293.4 hPa East 18.2 km/h 18.2 km/h 47 % 0 mm
06:50 -1.4 °C -8.3 °C 34293.4 hPa ESE 7.7 km/h 18.2 km/h 47 % 0 mm
07:00 -1.2 °C -8.3 °C 34327.3 hPa ESE 12.9 km/h 12.9 km/h 46 % 0 mm
07:10 -1.1 °C -8.2 °C 34327.3 hPa ESE 7.7 km/h 20.8 km/h 46 % 0 mm
07:20 -1.1 °C -8.4 °C 34327.3 hPa East 15.6 km/h 18.2 km/h 45 % 0 mm
07:30 -1.1 °C -8.8 °C 34327.3 hPa East 15.6 km/h 20.8 km/h 43 % 0 mm
07:40 -0.9 °C -8.5 °C 34327.3 hPa ESE 15.6 km/h 23.3 km/h 44 % 0 mm
07:50 -1 °C -8.6 °C 34327.3 hPa ESE 15.6 km/h 20.8 km/h 44 % 0 mm
08:00 -1.1 °C -8.4 °C 34361.1 hPa ESE 18.2 km/h 28.5 km/h 45 % 0 mm
08:10 -1.2 °C -8.3 °C 34327.3 hPa East 18.2 km/h 25.9 km/h 46 % 0 mm
08:20 -0.9 °C -8.3 °C 34327.3 hPa East 15.6 km/h 15.6 km/h 45 % 0 mm
08:30 -0.9 °C -8.3 °C 34327.3 hPa ESE 12.9 km/h 15.6 km/h 45 % 0 mm
08:40 -0.7 °C -8.1 °C 34293.4 hPa ESE 15.6 km/h 33.6 km/h 45 % 0 mm
08:50 -0.7 °C -8.3 °C 34293.4 hPa ESE 20.8 km/h 20.8 km/h 44 % 0 mm
09:00 -0.6 °C -8.4 °C 34327.3 hPa ESE 15.6 km/h 25.9 km/h 43 % 0 mm
09:10 -0.1 °C -8.4 °C 34327.3 hPa ESE 12.9 km/h 15.6 km/h 41 % 0 mm
09:20 0.4 °C -7.9 °C 34327.3 hPa SE 7.7 km/h 12.9 km/h 41 % 0 mm
09:30 0.4 °C -8.2 °C 34327.3 hPa SE 5.1 km/h 10.3 km/h 40 % 0 mm
09:40 0.7 °C -8.8 °C 34293.4 hPa SSW 12.9 km/h 15.6 km/h 36 % 0 mm
09:50 1.1 °C -8.7 °C 34293.4 hPa SW 15.6 km/h 15.6 km/h 35 % 0 mm
10:00 1.1 °C -8.7 °C 34293.4 hPa SW 12.9 km/h 12.9 km/h 35 % 0 mm
10:10 1.2 °C -8.7 °C 34327.3 hPa SSW 7.7 km/h 15.6 km/h 35 % 0 mm
10:20 1.2 °C -8.9 °C 34327.3 hPa SSW 12.9 km/h 18.2 km/h 34 % 0 mm
10:30 1 °C -9.1 °C 34293.4 hPa SW 5.1 km/h 20.8 km/h 34 % 0 mm
10:40 0.9 °C -9.1 °C 34293.4 hPa SW 15.6 km/h 15.6 km/h 34 % 0 mm
10:50 1.1 °C -9 °C 34293.4 hPa SW 18.2 km/h 18.2 km/h 34 % 0 mm
11:00 1.1 °C -9.2 °C 34293.4 hPa SW 7.7 km/h 20.8 km/h 33 % 0 mm
11:10 1 °C -9.3 °C 34327.3 hPa SW 12.9 km/h 25.9 km/h 33 % 0 mm
11:20 1.3 °C -9.3 °C 34327.3 hPa SW 7.7 km/h 15.6 km/h 32 % 0 mm
11:30 1.2 °C -9.7 °C 34327.3 hPa WSW 12.9 km/h 15.6 km/h 31 % 0 mm
11:40 1.1 °C -9.5 °C 34327.3 hPa SW 7.7 km/h 23.3 km/h 32 % 0 mm
11:50 1.1 °C -9.5 °C 34327.3 hPa SW 7.7 km/h 23.3 km/h 32 % 0 mm
12:00 1.4 °C -9.8 °C 34293.4 hPa SW 7.7 km/h 12.9 km/h 30 % 0 mm
12:10 0.9 °C -10.5 °C 34293.4 hPa SW 12.9 km/h 23.3 km/h 29 % 0 mm
12:20 1.1 °C -10 °C 34293.4 hPa SW 7.7 km/h 18.2 km/h 30 % 0 mm
12:30 1.1 °C -10.1 °C 34327.3 hPa SW 15.6 km/h 15.6 km/h 30 % 0 mm
12:40 1.1 °C -9.8 °C 34293.4 hPa SW 7.7 km/h 23.3 km/h 31 % 0 mm
12:50 1.1 °C -10.1 °C 34293.4 hPa SSW 5.1 km/h 15.6 km/h 30 % 0 mm
13:00 0.9 °C -10.2 °C 34327.3 hPa SW 7.7 km/h 12.9 km/h 30 % 0 mm
13:10 0.9 °C -10.2 °C 34327.3 hPa WSW 7.7 km/h 15.6 km/h 30 % 0 mm
13:20 0.8 °C -10.2 °C 34327.3 hPa SW 12.9 km/h 15.6 km/h 30 % 0 mm
13:30 0.7 °C -10.3 °C 34293.4 hPa SW 18.2 km/h 18.2 km/h 30 % 0 mm
13:40 0.6 °C -10.5 °C 34293.4 hPa SW 15.6 km/h 15.6 km/h 30 % 0 mm
13:50 0.4 °C -10.3 °C 34293.4 hPa WSW 12.9 km/h 23.3 km/h 31 % 0 mm
14:00 0.3 °C -10.4 °C 34327.3 hPa SW 15.6 km/h 15.6 km/h 31 % 0 mm
14:10 0.3 °C -10.2 °C 34293.4 hPa SW 7.7 km/h 12.9 km/h 32 % 0 mm
14:20 -0.3 °C -9.9 °C 34293.4 hPa WSW 5.1 km/h 7.7 km/h 35 % 0 mm
19:10 -4.8 °C -8.2 °C 34395 hPa NNE 2.6 km/h 2.6 km/h 69 % 0 mm
19:20 -4.9 °C -8.1 °C 34395 hPa NNE 2.6 km/h 2.6 km/h 70 % 0 mm
19:29 -1.2 °C -9.1 °C 34327.3 hPa ENE 20.9 km/h 20.9 km/h 42 % 0 mm
19:30 -4.9 °C -8.2 °C 34395 hPa Calm   2.6 km/h 70 % 0 mm
19:34 -1.5 °C -9 °C 34327.3 hPa ESE 15 km/h 15 km/h 44 % 0 mm
19:39 -1.7 °C -8.8 °C 34327.3 hPa SE 23.8 km/h 23.8 km/h 46 % 0 mm
19:40 -5 °C -8.2 °C 34361.1 hPa Calm     70 % 0 mm
19:44 -1.8 °C -8.4 °C 34327.3 hPa ESE 29.8 km/h 29.8 km/h 49 % 0 mm
19:49 -2 °C -8.2 °C 34327.3 hPa East 26.9 km/h 26.9 km/h 51 % 0 mm
19:50 -5.1 °C -8.2 °C 34361.1 hPa Calm     71 % 0 mm
19:54 -2.1 °C -8.2 °C 34327.3 hPa East 19.6 km/h 19.6 km/h 51 % 0 mm
19:59 -2.1 °C -7.9 °C 34327.3 hPa NNE 11.9 km/h 11.9 km/h 53 % 0 mm
20:00 -5.1 °C -8.2 °C 34395 hPa Calm   5.1 km/h 71 % 0 mm
20:04 -2.2 °C -8 °C 34327.3 hPa SE 20.9 km/h 20.9 km/h 53 % 0 mm
20:09 -2.3 °C -7.8 °C 34327.3 hPa East 15.3 km/h 15.3 km/h 55 % 0 mm
20:10 -5.1 °C -8.2 °C 34395 hPa Calm     71 % 0 mm
20:14 -2.4 °C -7.7 °C 34327.3 hPa ESE 17.9 km/h 17.9 km/h 56 % 0 mm
20:19 -2.7 °C -7.8 °C 34327.3 hPa ENE 23.8 km/h 23.8 km/h 57 % 0 mm
20:20 -5.2 °C -8.1 °C 34395 hPa Calm     72 % 0 mm
20:24 -2.8 °C -7.7 °C 34327.3 hPa ENE 20.9 km/h 20.9 km/h 58 % 0 mm
20:29 -2.9 °C -7.6 °C 34327.3 hPa ENE 17.9 km/h 17.9 km/h 60 % 0 mm
20:30 -5.2 °C -8.2 °C 34395 hPa Calm     72 % 0 mm
20:34 -3 °C -7.7 °C 34327.3 hPa ESE 15.6 km/h 15.6 km/h 60 % 0 mm
20:39 -3.1 °C -7.6 °C 34327.3 hPa ENE 15 km/h 15 km/h 61 % 0 mm
20:40 -5.4 °C -8.3 °C 34395 hPa Calm     72 % 0 mm
20:44 -3.2 °C -7.7 °C 34327.3 hPa ENE 15 km/h 15 km/h 61 % 0 mm
20:49 -3.3 °C -7.7 °C 34327.3 hPa ENE 14 km/h 14 km/h 62 % 0 mm
20:50 -5.4 °C -8.2 °C 34395 hPa Calm     73 % 0 mm
20:54 -3.3 °C -7.8 °C 34327.3 hPa ENE 11.9 km/h 11.9 km/h 61 % 0 mm
20:59 -3.4 °C -7.9 °C 34327.3 hPa NE 11.9 km/h 11.9 km/h 61 % 0 mm
21:00 -5.4 °C -8.4 °C 34395 hPa WNW 2.6 km/h 2.6 km/h 72 % 0 mm
21:04 -3.4 °C -7.9 °C 34327.3 hPa East 11.9 km/h 11.9 km/h 61 % 0 mm
21:09 -3.5 °C -7.8 °C 34327.3 hPa ENE 11.9 km/h 11.9 km/h 62 % 0 mm
21:10 -5.4 °C -8.3 °C 34395 hPa Calm     73 % 0 mm
21:14 -3.6 °C -7.9 °C 34293.4 hPa NE 15 km/h 15 km/h 62 % 0 mm
21:19 -3.6 °C -7.9 °C 34293.4 hPa NNE 11.9 km/h 11.9 km/h 62 % 0 mm
21:20 -5.5 °C -8.2 °C 34395 hPa Calm     74 % 0 mm
21:24 -3.7 °C -8 °C 34293.4 hPa ENE 11.9 km/h 11.9 km/h 62 % 0 mm
21:25 -3.7 °C -8.1 °C 34293.4 hPa ENE 9 km/h 9 km/h 62 % 0 mm
21:30 -3.8 °C -8.1 °C 34327.3 hPa East 11.9 km/h 11.9 km/h 62 % 0 mm
21:35 -3.8 °C -8.1 °C 34327.3 hPa East 9 km/h 9 km/h 62 % 0 mm
21:40 -3.8 °C -8.2 °C 34327.3 hPa ENE 10.3 km/h 10.3 km/h 62 % 0 mm
21:45 -3.9 °C -8.2 °C 34327.3 hPa ENE 11.9 km/h 11.9 km/h 62 % 0 mm
21:50 -3.9 °C -8 °C 34327.3 hPa ENE 15.3 km/h 15.3 km/h 64 % 0 mm
21:51 -3.9 °C -8 °C 34327.3 hPa ENE 15.3 km/h 15.3 km/h 64 % 0 mm
21:56 -4 °C -7.9 °C 34327.3 hPa NNE 11.9 km/h 11.9 km/h 65 % 0 mm
22:00 -5.8 °C -8.4 °C 34361.1 hPa Calm   2.6 km/h 75 % 0 mm
22:01 -4.1 °C -7.9 °C 34327.3 hPa ENE 11.9 km/h 11.9 km/h 65 % 0 mm
22:06 -4.1 °C -8 °C 34327.3 hPa ENE 6 km/h 6 km/h 65 % 0 mm
22:10 -5.9 °C -8.3 °C 34361.1 hPa North 2.6 km/h 5.1 km/h 76 % 0 mm
22:11 -4.2 °C -7.9 °C 34327.3 hPa East 10.3 km/h 10.3 km/h 66 % 0 mm
22:16 -4.2 °C -7.9 °C 34361.1 hPa SSE 9 km/h 9 km/h 66 % 0 mm
22:20 -5.9 °C -8.3 °C 34361.1 hPa NE 2.6 km/h 2.6 km/h 76 % 0 mm
22:21 -4.2 °C -8 °C 34361.1 hPa NE 6.8 km/h 6.8 km/h 66 % 0 mm
22:26 -4.3 °C -8 °C 34361.1 hPa East 9 km/h 9 km/h 66 % 0 mm
22:30 -5.9 °C -8.3 °C 34361.1 hPa Calm   5.1 km/h 76 % 0 mm
22:31 -4.3 °C -8 °C 34361.1 hPa NE 9 km/h 9 km/h 66 % 0 mm
22:36 -4.3 °C -8.1 °C 34361.1 hPa ENE 11.9 km/h 11.9 km/h 66 % 0 mm
22:40 -5.9 °C -8.4 °C 34361.1 hPa Calm     76 % 0 mm
22:41 -4.3 °C -8.1 °C 34361.1 hPa NE 9 km/h 9 km/h 66 % 0 mm
22:46 -4.3 °C -8.1 °C 34395 hPa East 6.3 km/h 6.3 km/h 66 % 0 mm
22:50 -5.9 °C -8.3 °C 34395 hPa Calm     77 % 0 mm
22:51 -4.4 °C -8 °C 34395 hPa ENE 6 km/h 6 km/h 67 % 0 mm
22:56 -4.4 °C -8 °C 34395 hPa NNE 6 km/h 6 km/h 67 % 0 mm
23:00 -6.2 °C -8.6 °C 34395 hPa NNE 2.6 km/h 5.1 km/h 77 % 0 mm
23:01 -4.4 °C -8 °C 34395 hPa ENE 6.3 km/h 6.3 km/h 67 % 0 mm
23:06 -4.4 °C -8.1 °C 34395 hPa ENE 6 km/h 6 km/h 67 % 0 mm
23:10 -6.2 °C -8.4 °C 34395 hPa West 2.6 km/h 2.6 km/h 78 % 0 mm
23:11 -4.4 °C -8.1 °C 34395 hPa ENE 3.7 km/h 3.7 km/h 67 % 0 mm
23:16 -4.5 °C -8 °C 34395 hPa ENE 6 km/h 6 km/h 68 % 0 mm
23:20 -6.3 °C -8.5 °C 34395 hPa NE 2.6 km/h 5.1 km/h 78 % 0 mm
23:21 -4.5 °C -8 °C 34395 hPa ENE 6 km/h 6 km/h 68 % 0 mm
23:26 -4.5 °C -8 °C 34395 hPa NE 6 km/h 6 km/h 68 % 0 mm
23:30 -6.3 °C -8.5 °C 34395 hPa Calm   5.1 km/h 78 % 0 mm
23:31 -4.6 °C -7.9 °C 34395 hPa NE 6 km/h 6 km/h 69 % 0 mm
23:36 -4.6 °C -7.9 °C 34395 hPa NE 6 km/h   69 % 0 mm
23:40 -6.3 °C -8.6 °C 34395 hPa NE 5.1 km/h 7.7 km/h 78 % 0 mm
23:41 -4.6 °C -7.9 °C 34395 hPa NNE 3.1 km/h   69 % 0 mm
23:46 -4.7 °C -8 °C 34395 hPa NNE 6.3 km/h 6.3 km/h 69 % 0 mm
23:50 -6.5 °C -8.7 °C 34395 hPa NE 2.6 km/h 5.1 km/h 78 % 0 mm
23:51 -4.7 °C -8.1 °C 34395 hPa NNE 6.3 km/h 6.3 km/h 69 % 0 mm
23:56 -4.7 °C -8.1 °C 34395 hPa NNE 3.1 km/h   69 % 0 mm
Meteo Sesrovires
Elogis d' Weather Underground - 1.5 mb

Guio original per  Jim McMurry - jmcmurry@mwt.net Adaptat per a la plantilla per  Wim van der Kuil - Leuven-Template.eu

Trobareu la nostra informacio del temps tambe a:

Weather Underground

AWEKAS